Time,TemperatureF,DewpointF,PressureIn,WindDirection,WindDirectionDegrees,WindSpeedMPH,WindSpeedGustMPH,Humidity,HourlyPrecipIn,Conditions,Clouds,dailyrainin,SoftwareType,DateUTC
2013-03-04 07:19:00,26.4,19.9,30.13,ESE,113,10.0,11.0,76,0.00,,,0.00,Wunderground v.1.15,2013-03-04 13:19:00,
2013-03-04 07:20:00,26.4,19.9,30.13,ESE,117,10.0,11.0,76,0.00,,,0.00,Wunderground v.1.15,2013-03-04 13:20:00,
2013-03-04 07:21:00,26.4,19.9,30.13,SE,124,11.0,12.0,76,0.00,,,0.00,Wunderground v.1.15,2013-03-04 13:21:00,
2013-03-04 07:27:00,26.5,20.0,30.13,ESE,121,10.0,13.0,76,0.00,,,0.00,Wunderground v.1.15,2013-03-04 13:27:00,
2013-03-04 07:29:00,26.6,19.7,30.13,ESE,118,10.0,10.0,75,0.00,,,0.00,Wunderground v.1.15,2013-03-04 13:29:00,
2013-03-04 07:35:00,26.7,20.1,30.13,ESE,115,11.0,13.0,76,0.00,,,0.00,Wunderground v.1.15,2013-03-04 13:35:00,
2013-03-04 07:40:00,26.8,20.6,30.13,ESE,102,11.0,12.0,77,0.00,,,0.00,Wunderground v.1.15,2013-03-04 13:40:00,
2013-03-04 07:46:00,26.9,20.3,30.13,ESE,118,11.0,14.0,76,0.00,,,0.00,Wunderground v.1.15,2013-03-04 13:46:00,
2013-03-04 07:51:00,27.0,20.4,30.13,ESE,117,12.0,14.0,76,0.00,,,0.00,Wunderground v.1.15,2013-03-04 13:51:00,
2013-03-04 07:57:00,27.0,20.1,30.13,SE,130,13.0,17.0,75,0.00,,,0.00,Wunderground v.1.15,2013-03-04 13:57:00,
2013-03-04 08:02:00,27.1,20.2,30.13,ESE,117,13.0,15.0,75,0.00,,,0.00,Wunderground v.1.15,2013-03-04 14:02:00,
2013-03-04 08:07:00,27.2,20.3,30.13,ESE,110,13.0,16.0,75,0.00,,,0.00,Wunderground v.1.15,2013-03-04 14:07:00,
2013-03-04 08:13:00,27.3,20.4,30.13,SE,127,13.0,14.0,75,0.00,,,0.00,Wunderground v.1.15,2013-03-04 14:13:00,
2013-03-04 08:18:00,27.4,20.8,30.13,ESE,119,12.0,16.0,76,0.00,,,0.00,Wunderground v.1.15,2013-03-04 14:18:00,
2013-03-04 08:23:00,27.5,20.6,30.12,ESE,120,13.0,15.0,75,0.00,,,0.00,Wunderground v.1.15,2013-03-04 14:23:00,
2013-03-04 08:29:00,27.9,21.3,30.12,ESE,103,13.0,15.0,76,0.00,,,0.00,Wunderground v.1.15,2013-03-04 14:29:00,
2013-03-04 08:35:00,28.1,20.9,30.12,ESE,111,12.0,14.0,74,0.00,,,0.00,Wunderground v.1.15,2013-03-04 14:35:00,
2013-03-04 08:41:00,28.4,21.5,30.12,ESE,106,13.0,13.0,75,0.00,,,0.00,Wunderground v.1.15,2013-03-04 14:41:00,
2013-03-04 08:46:00,28.7,21.5,30.12,SE,124,13.0,16.0,74,0.00,,,0.00,Wunderground v.1.15,2013-03-04 14:46:00,
2013-03-04 08:52:00,28.8,21.9,30.12,ESE,107,13.0,13.0,75,0.00,,,0.00,Wunderground v.1.15,2013-03-04 14:52:00,
2013-03-04 08:58:00,28.9,21.7,30.11,ESE,113,13.0,15.0,74,0.00,,,0.00,Wunderground v.1.15,2013-03-04 14:58:00,
2013-03-04 09:04:00,29.0,21.4,30.11,ESE,119,14.0,17.0,73,0.00,,,0.00,Wunderground v.1.15,2013-03-04 15:04:00,
2013-03-04 09:09:00,28.9,21.0,30.11,ESE,117,15.0,17.0,72,0.00,,,0.00,Wunderground v.1.15,2013-03-04 15:09:00,
2013-03-04 09:15:00,29.1,22.2,30.11,ESE,117,14.0,16.0,75,0.00,,,0.00,Wunderground v.1.15,2013-03-04 15:15:00,
2013-03-04 09:21:00,29.3,22.7,30.11,SE,130,13.0,13.0,76,0.00,,,0.00,Wunderground v.1.15,2013-03-04 15:21:00,
2013-03-04 09:27:00,29.3,21.7,30.11,ESE,117,13.0,15.0,73,0.00,,,0.00,Wunderground v.1.15,2013-03-04 15:27:00,
2013-03-04 09:32:00,29.4,22.1,30.11,ESE,106,13.0,15.0,74,0.00,,,0.00,Wunderground v.1.15,2013-03-04 15:32:00,
2013-03-04 09:38:00,29.4,22.1,30.11,ESE,116,14.0,15.0,74,0.00,,,0.00,Wunderground v.1.15,2013-03-04 15:38:00,
2013-03-04 09:43:00,29.6,23.0,30.10,SE,126,13.0,15.0,76,0.00,,,0.00,Wunderground v.1.15,2013-03-04 15:43:00,
2013-03-04 09:49:00,29.6,21.7,30.10,ESE,105,13.0,17.0,72,0.00,,,0.00,Wunderground v.1.15,2013-03-04 15:49:00,
2013-03-04 09:55:00,29.8,22.5,30.10,ESE,117,14.0,16.0,74,0.00,,,0.00,Wunderground v.1.15,2013-03-04 15:55:00,
2013-03-04 10:00:00,29.8,22.2,30.10,ESE,115,14.0,14.0,73,0.00,,,0.00,Wunderground v.1.15,2013-03-04 16:00:00,
2013-03-04 10:06:00,29.9,22.6,30.10,ESE,119,14.0,14.0,74,0.00,,,0.00,Wunderground v.1.15,2013-03-04 16:06:00,
2013-03-04 10:12:00,30.1,22.5,30.10,ESE,107,14.0,16.0,73,0.00,,,0.00,Wunderground v.1.15,2013-03-04 16:12:00,
2013-03-04 10:17:00,30.3,23.0,30.10,ESE,112,13.0,16.0,74,0.00,,,0.00,Wunderground v.1.15,2013-03-04 16:17:00,
2013-03-04 10:23:00,30.4,23.1,30.10,ESE,110,12.0,15.0,74,0.00,,,0.00,Wunderground v.1.15,2013-03-04 16:23:00,
2013-03-04 10:28:00,30.4,22.8,30.10,East,94,13.0,15.0,73,0.00,,,0.00,Wunderground v.1.15,2013-03-04 16:28:00,
2013-03-04 10:34:00,30.3,22.7,30.10,ESE,123,14.0,16.0,73,0.00,,,0.00,Wunderground v.1.15,2013-03-04 16:34:00,
2013-03-04 10:40:00,30.5,23.2,30.09,ESE,116,14.0,15.0,74,0.00,,,0.00,Wunderground v.1.15,2013-03-04 16:40:00,
2013-03-04 10:45:00,30.6,23.6,30.09,ESE,105,13.0,16.0,75,0.00,,,0.00,Wunderground v.1.15,2013-03-04 16:45:00,
2013-03-04 10:51:00,30.6,23.0,30.09,ESE,115,13.0,14.0,73,0.00,,,0.00,Wunderground v.1.15,2013-03-04 16:51:00,
2013-03-04 10:56:00,30.7,23.4,30.09,SE,125,14.0,15.0,74,0.00,,,0.00,Wunderground v.1.15,2013-03-04 16:56:00,
2013-03-04 11:02:00,30.9,23.6,30.10,ESE,122,12.0,14.0,74,0.00,,,0.00,Wunderground v.1.15,2013-03-04 17:02:00,
2013-03-04 11:08:00,31.0,23.7,30.09,ESE,107,12.0,14.0,74,0.00,,,0.00,Wunderground v.1.15,2013-03-04 17:08:00,
2013-03-04 11:13:00,31.1,23.8,30.09,ESE,110,12.0,13.0,74,0.00,,,0.00,Wunderground v.1.15,2013-03-04 17:13:00,
2013-03-04 11:19:00,31.3,24.3,30.09,ESE,112,12.0,14.0,75,0.00,,,0.00,Wunderground v.1.15,2013-03-04 17:19:00,
2013-03-04 11:25:00,31.3,24.0,30.09,ESE,110,12.0,14.0,74,0.00,,,0.00,Wunderground v.1.15,2013-03-04 17:25:00,
2013-03-04 11:31:00,31.4,24.7,30.08,ESE,111,12.0,12.0,76,0.00,,,0.00,Wunderground v.1.15,2013-03-04 17:31:00,
2013-03-04 11:36:00,31.5,25.1,30.08,ESE,107,11.0,12.0,77,0.00,,,0.00,Wunderground v.1.15,2013-03-04 17:36:00,
2013-03-04 11:42:00,31.5,24.5,30.08,East,100,11.0,14.0,75,0.00,,,0.00,Wunderground v.1.15,2013-03-04 17:42:00,
2013-03-04 11:48:00,31.4,24.4,30.08,East,101,12.0,14.0,75,0.00,,,0.00,Wunderground v.1.15,2013-03-04 17:48:00,
2013-03-04 11:53:00,31.6,24.9,30.08,East,99,12.0,13.0,76,0.00,,,0.00,Wunderground v.1.15,2013-03-04 17:53:00,
2013-03-04 11:59:00,31.6,25.2,30.08,ESE,112,12.0,14.0,77,0.00,,,0.00,Wunderground v.1.15,2013-03-04 17:59:00,
2013-03-04 12:05:00,31.7,25.3,30.08,SE,126,11.0,12.0,77,0.00,,,0.00,Wunderground v.1.15,2013-03-04 18:05:00,
2013-03-04 12:10:00,31.7,25.3,30.07,East,101,12.0,14.0,77,0.00,,,0.00,Wunderground v.1.15,2013-03-04 18:10:00,
2013-03-04 12:16:00,31.8,25.4,30.07,East,100,11.0,14.0,77,0.00,,,0.00,Wunderground v.1.15,2013-03-04 18:16:00,
2013-03-04 12:21:00,31.9,25.5,30.07,ESE,111,11.0,11.0,77,0.00,,,0.00,Wunderground v.1.15,2013-03-04 18:21:00,
2013-03-04 12:27:00,32.0,25.3,30.06,ESE,120,11.0,14.0,76,0.00,,,0.00,Wunderground v.1.15,2013-03-04 18:27:00,
2013-03-04 12:30:00,32.0,25.3,30.06,ESE,123,11.0,12.0,76,0.00,,,0.00,Wunderground v.1.15,2013-03-04 18:30:00,
2013-03-04 12:31:00,32.0,25.0,30.06,ESE,104,12.0,12.0,75,0.00,,,0.00,Wunderground v.1.15,2013-03-04 18:31:00,
2013-03-04 12:32:00,32.0,25.3,30.06,ESE,116,12.0,12.0,76,0.00,,,0.00,Wunderground v.1.15,2013-03-04 18:32:00,
2013-03-04 12:34:00,32.1,25.7,30.06,ESE,115,12.0,12.0,77,0.00,,,0.00,Wunderground v.1.15,2013-03-04 18:34:00,
2013-03-04 12:40:00,32.3,25.9,30.06,ESE,123,12.0,12.0,77,0.00,,,0.00,Wunderground v.1.15,2013-03-04 18:40:00,
2013-03-04 12:45:00,32.3,25.9,30.06,SE,126,11.0,12.0,77,0.00,,,0.00,Wunderground v.1.15,2013-03-04 18:45:00,
2013-03-04 12:51:00,32.2,26.1,30.06,SE,127,11.0,13.0,78,0.00,,,0.00,Wunderground v.1.15,2013-03-04 18:51:00,
2013-03-04 12:56:00,31.9,25.8,30.05,East,101,11.0,13.0,78,0.00,,,0.00,Wunderground v.1.15,2013-03-04 18:56:00,
2013-03-04 13:01:00,31.6,25.2,30.05,ESE,115,12.0,15.0,77,0.00,,,0.00,Wunderground v.1.15,2013-03-04 19:01:00,
2013-03-04 13:07:00,31.3,25.2,30.05,SE,125,13.0,15.0,78,0.00,,,0.00,Wunderground v.1.15,2013-03-04 19:07:00,
2013-03-04 13:12:00,31.3,26.1,30.05,SE,132,12.0,13.0,81,0.00,,,0.00,Wunderground v.1.15,2013-03-04 19:12:00,
2013-03-04 13:17:00,31.1,25.7,30.05,ESE,115,12.0,13.0,80,0.00,,,0.00,Wunderground v.1.15,2013-03-04 19:17:00,
2013-03-04 13:22:00,31.0,25.6,30.04,ESE,121,12.0,12.0,80,0.00,,,0.00,Wunderground v.1.15,2013-03-04 19:22:00,
2013-03-04 13:28:00,31.1,26.2,30.04,ESE,110,12.0,12.0,82,0.00,,,0.00,Wunderground v.1.15,2013-03-04 19:28:00,
2013-03-04 13:33:00,31.1,25.3,30.04,East,98,11.0,11.0,79,0.00,,,0.00,Wunderground v.1.15,2013-03-04 19:33:00,
2013-03-04 13:39:00,31.4,25.3,30.04,ESE,120,11.0,14.0,78,0.00,,,0.00,Wunderground v.1.15,2013-03-04 19:39:00,
2013-03-04 13:44:00,31.7,25.9,30.04,ESE,115,10.0,12.0,79,0.00,,,0.00,Wunderground v.1.15,2013-03-04 19:44:00,
2013-03-04 13:49:00,32.2,26.1,30.03,ESE,110,10.0,13.0,78,0.00,,,0.00,Wunderground v.1.15,2013-03-04 19:49:00,
2013-03-04 13:55:00,32.5,26.7,30.03,ESE,111,11.0,12.0,79,0.00,,,0.00,Wunderground v.1.15,2013-03-04 19:55:00,
2013-03-04 14:01:00,32.5,25.8,30.03,ESE,112,11.0,15.0,76,0.00,,,0.00,Wunderground v.1.15,2013-03-04 20:01:00,
2013-03-04 14:07:00,32.4,26.0,30.03,SE,131,12.0,15.0,77,0.00,,,0.00,Wunderground v.1.15,2013-03-04 20:07:00,
2013-03-04 14:13:00,32.1,26.3,30.03,SE,125,12.0,14.0,79,0.00,,,0.00,Wunderground v.1.15,2013-03-04 20:13:00,
2013-03-04 14:18:00,32.3,26.5,30.03,SE,126,12.0,14.0,79,0.00,,,0.00,Wunderground v.1.15,2013-03-04 20:18:00,
2013-03-04 14:24:00,32.2,25.8,30.03,ESE,117,12.0,13.0,77,0.00,,,0.00,Wunderground v.1.15,2013-03-04 20:24:00,
2013-03-04 14:30:00,32.3,26.5,30.03,ESE,123,12.0,13.0,79,0.00,,,0.00,Wunderground v.1.15,2013-03-04 20:30:00,
2013-03-04 14:36:00,32.6,26.8,30.02,ESE,114,11.0,13.0,79,0.00,,,0.00,Wunderground v.1.15,2013-03-04 20:36:00,
2013-03-04 14:42:00,32.9,26.5,30.02,ESE,111,11.0,12.0,77,0.00,,,0.00,Wunderground v.1.15,2013-03-04 20:42:00,
2013-03-04 14:47:00,33.1,26.4,30.02,ESE,105,12.0,13.0,76,0.00,,,0.00,Wunderground v.1.15,2013-03-04 20:47:00,
2013-03-04 14:53:00,33.3,26.5,30.02,ESE,107,12.0,14.0,76,0.00,,,0.00,Wunderground v.1.15,2013-03-04 20:53:00,
2013-03-04 14:59:00,33.4,26.3,30.02,ESE,115,12.0,16.0,75,0.00,,,0.00,Wunderground v.1.15,2013-03-04 20:59:00,
2013-03-04 15:05:00,33.6,26.2,30.02,ESE,113,12.0,14.0,74,0.00,,,0.00,Wunderground v.1.15,2013-03-04 21:05:00,
2013-03-04 15:11:00,33.7,26.0,30.01,ESE,108,12.0,13.0,73,0.00,,,0.00,Wunderground v.1.15,2013-03-04 21:11:00,
2013-03-04 15:16:00,33.9,26.8,30.01,East,93,12.0,15.0,75,0.00,,,0.00,Wunderground v.1.15,2013-03-04 21:16:00,
2013-03-04 15:22:00,33.8,26.7,30.01,ESE,105,12.0,13.0,75,0.00,,,0.00,Wunderground v.1.15,2013-03-04 21:22:00,
2013-03-04 15:28:00,33.9,27.1,30.01,ESE,103,12.0,13.0,76,0.00,,,0.00,Wunderground v.1.15,2013-03-04 21:28:00,
2013-03-04 15:33:00,34.0,26.9,30.01,ESE,106,11.0,13.0,75,0.00,,,0.00,Wunderground v.1.15,2013-03-04 21:33:00,
2013-03-04 15:39:00,34.0,26.6,30.00,East,85,12.0,17.0,74,0.00,,,0.00,Wunderground v.1.15,2013-03-04 21:39:00,
2013-03-04 15:45:00,34.0,26.3,30.00,ESE,109,14.0,17.0,73,0.00,,,0.00,Wunderground v.1.15,2013-03-04 21:45:00,
2013-03-04 15:50:00,34.0,26.6,30.00,East,96,14.0,15.0,74,0.00,,,0.00,Wunderground v.1.15,2013-03-04 21:50:00,
2013-03-04 15:56:00,34.0,26.6,30.00,East,100,14.0,15.0,74,0.00,,,0.00,Wunderground v.1.15,2013-03-04 21:56:00,
2013-03-04 16:02:00,34.0,26.9,30.00,East,96,14.0,15.0,75,0.00,,,0.00,Wunderground v.1.15,2013-03-04 22:02:00,
2013-03-04 16:07:00,34.0,26.9,30.00,ESE,106,13.0,15.0,75,0.00,,,0.00,Wunderground v.1.15,2013-03-04 22:07:00,
2013-03-04 16:12:00,34.1,27.6,30.00,ESE,104,11.0,13.0,77,0.00,,,0.00,Wunderground v.1.15,2013-03-04 22:12:00,
2013-03-04 16:18:00,34.2,27.4,30.00,East,95,11.0,13.0,76,0.00,,,0.00,Wunderground v.1.15,2013-03-04 22:18:00,
2013-03-04 16:24:00,34.2,27.7,30.00,ESE,110,11.0,16.0,77,0.00,,,0.00,Wunderground v.1.15,2013-03-04 22:24:00,
2013-03-04 16:30:00,34.2,27.7,30.00,East,86,12.0,12.0,77,0.00,,,0.00,Wunderground v.1.15,2013-03-04 22:30:00,
2013-03-04 16:36:00,34.1,27.6,29.99,ESE,110,13.0,17.0,77,0.00,,,0.00,Wunderground v.1.15,2013-03-04 22:36:00,